Time;durP1;ratioP1;P1;durP2;ratioP2;P2;SDS_P1;SDS_P2;PMS_P1;PMS_P2;Temp;Humidity;BMP_temperature;BMP_pressure;BME280_temperature;BME280_humidity;BME280_pressure;Samples;Min_cycle;Max_cycle;Signal;HPM_P1;HPM_P2
2022/08/24 00:02:22;;;;;;;22.48;18.92;;;18.20;99.90;;;;;;5047728;28;20033;-70
2022/08/24 00:04:48;;;;;;;36.55;29.65;;;18.20;99.90;;;;;;5050651;28;20044;-70
2022/08/24 00:07:14;;;;;;;44.10;34.70;;;18.10;99.90;;;;;;5049817;28;20507;-70
2022/08/24 00:09:41;;;;;;;36.45;28.77;;;18.00;99.90;;;;;;5048444;28;20126;-70
2022/08/24 00:12:07;;;;;;;36.97;30.60;;;17.90;99.90;;;;;;5051319;28;20143;-70
2022/08/24 00:14:32;;;;;;;35.60;27.52;;;17.80;99.90;;;;;;5049797;28;20052;-70
2022/08/24 00:16:59;;;;;;;33.45;26.58;;;17.90;99.90;;;;;;5040811;28;20476;-70
2022/08/24 00:19:26;;;;;;;37.80;29.58;;;17.90;99.90;;;;;;5045855;28;20863;-70
2022/08/24 00:21:51;;;;;;;43.20;33.05;;;17.80;99.90;;;;;;5043042;28;20083;-70
2022/08/24 00:24:18;;;;;;;51.35;37.17;;;17.70;99.90;;;;;;5046807;28;20041;-70
2022/08/24 00:26:45;;;;;;;40.80;32.88;;;17.70;99.90;;;;;;5044950;28;20040;-70
2022/08/24 00:29:12;;;;;;;42.53;33.60;;;17.80;99.90;;;;;;5048384;28;20659;-70
2022/08/24 00:31:38;;;;;;;40.75;31.70;;;17.80;99.90;;;;;;5040136;28;20053;-71
2022/08/24 00:34:03;;;;;;;32.70;27.13;;;17.90;99.90;;;;;;5046980;28;20395;-71
2022/08/24 00:36:29;;;;;;;19.30;17.20;;;17.80;99.90;;;;;;5043475;28;20460;-71
2022/08/24 00:38:55;;;;;;;20.88;18.17;;;17.80;99.90;;;;;;5017605;28;20041;-71
2022/08/24 00:41:21;;;;;;;19.00;15.60;;;17.70;99.90;;;;;;5042066;28;20044;-71
2022/08/24 00:43:59;;;;;;;15.10;13.57;;;17.80;99.90;;;;;;5059615;28;20487;-71
2022/08/24 00:46:27;;;;;;;15.13;13.52;;;17.70;99.90;;;;;;5061888;28;20036;-71
2022/08/24 00:49:01;;;;;;;15.45;13.90;;;17.70;99.90;;;;;;5059901;28;20037;-71
2022/08/24 00:51:34;;;;;;;13.75;12.02;;;17.70;99.90;;;;;;5046352;28;20044;-71
2022/08/24 00:54:05;;;;;;;11.88;9.75;;;17.80;99.90;;;;;;5044248;28;20040;-71
2022/08/24 00:56:36;;;;;;;12.48;10.57;;;17.70;99.90;;;;;;5046193;28;20079;-71
2022/08/24 00:59:07;;;;;;;12.57;11.32;;;17.60;99.90;;;;;;5059750;28;20064;-71
2022/08/24 01:01:34;;;;;;;14.82;13.38;;;17.50;99.90;;;;;;5042220;28;20155;-71
2022/08/24 01:04:01;;;;;;;13.60;12.20;;;17.40;99.90;;;;;;5045193;28;20124;-71
2022/08/24 01:06:27;;;;;;;17.30;15.40;;;17.40;99.90;;;;;;5044951;28;20049;-71
2022/08/24 01:08:52;;;;;;;18.83;16.83;;;17.30;99.90;;;;;;5044595;28;20384;-71
2022/08/24 01:11:22;;;;;;;18.17;16.35;;;17.20;99.90;;;;;;5058045;28;20060;-71
2022/08/24 01:13:51;;;;;;;16.98;15.27;;;17.30;99.90;;;;;;5041785;28;20048;-72
2022/08/24 01:18:48;;;;;;;12.40;11.20;;;17.20;99.90;;;;;;5044481;28;20044;-72
2022/08/24 01:19:11;;;;;;;11.60;10.50;;;17.20;99.90;;;;;;5041466;28;20056;-72
2022/08/24 01:21:44;;;;;;;14.48;13.18;;;17.20;99.90;;;;;;5036984;28;20415;-72
2022/08/24 01:24:10;;;;;;;;;;;17.20;99.90;;;;;;5044573;28;20071;-72
2022/08/24 01:26:44;;;;;;;13.80;12.60;;;17.10;99.90;;;;;;5046302;28;20496;-72
2022/08/24 01:29:17;;;;;;;16.50;14.95;;;17.00;99.90;;;;;;5045795;28;20052;-72
2022/08/24 01:31:42;;;;;;;17.23;15.52;;;17.00;99.90;;;;;;5060415;28;20048;-71
2022/08/24 01:34:08;;;;;;;15.65;14.23;;;17.00;99.90;;;;;;5044499;28;20033;-71
2022/08/24 01:36:41;;;;;;;16.00;14.45;;;17.00;99.90;;;;;;5042781;28;20048;-71
2022/08/24 01:39:11;;;;;;;15.30;13.80;;;16.90;99.90;;;;;;5039062;28;20041;-71
2022/08/24 01:41:37;;;;;;;16.38;14.85;;;16.90;99.90;;;;;;5045793;28;20139;-71
2022/08/24 01:44:03;;;;;;;14.15;12.90;;;17.00;99.90;;;;;;5043395;28;20119;-71
2022/08/24 01:46:29;;;;;;;12.27;11.27;;;17.00;99.90;;;;;;5044761;28;20473;-71
2022/08/24 01:48:57;;;;;;;10.55;9.65;;;17.00;99.90;;;;;;5040835;28;20066;-71
2022/08/24 01:51:23;;;;;;;8.38;7.60;;;17.10;99.90;;;;;;5059141;28;20038;-71
2022/08/24 01:53:49;;;;;;;11.05;10.05;;;17.00;99.90;;;;;;5043163;28;20591;-71
2022/08/24 01:56:15;;;;;;;12.05;10.82;;;17.00;99.90;;;;;;5046540;28;20060;-71
2022/08/24 01:58:46;;;;;;;13.85;12.48;;;17.00;99.90;;;;;;5020879;28;20038;-71
2022/08/24 02:01:13;;;;;;;15.88;14.38;;;17.00;99.90;;;;;;5042771;28;20091;-71
2022/08/24 02:03:39;;;;;;;16.13;14.52;;;17.00;99.90;;;;;;5043608;28;20045;-71
2022/08/24 02:06:05;;;;;;;17.42;15.63;;;16.90;99.90;;;;;;5043286;28;20151;-71
2022/08/24 02:08:33;;;;;;;15.55;14.00;;;16.80;99.90;;;;;;5060179;28;20082;-71
2022/08/24 02:10:58;;;;;;;22.75;14.13;;;16.70;99.90;;;;;;5043859;28;20056;-70
2022/08/24 02:13:27;;;;;;;144.93;15.90;;;16.50;99.90;;;;;;5042935;28;20230;-70
2022/08/24 02:15:53;;;;;;;12.50;11.40;;;16.40;99.90;;;;;;5059222;28;20419;-70
2022/08/24 02:18:18;;;;;;;13.07;11.88;;;16.30;99.90;;;;;;5044583;28;20037;-70
2022/08/24 02:20:44;;;;;;;12.98;11.77;;;16.20;99.90;;;;;;5044002;28;20037;-70
2022/08/24 02:23:10;;;;;;;13.27;11.98;;;16.20;99.90;;;;;;5042778;28;20581;-70
2022/08/24 02:25:35;;;;;;;14.75;13.25;;;16.20;99.90;;;;;;5057007;28;20095;-70
2022/08/24 02:28:02;;;;;;;15.00;13.60;;;16.20;99.90;;;;;;5046784;28;20123;-70
2022/08/24 02:30:29;;;;;;;13.52;12.27;;;16.20;99.90;;;;;;5060488;28;20032;-70
2022/08/24 02:32:54;;;;;;;13.80;12.45;;;16.20;99.90;;;;;;5033625;28;20668;-70
2022/08/24 02:35:21;;;;;;;13.02;11.80;;;16.20;99.90;;;;;;5040571;28;20064;-70
2022/08/24 02:37:47;;;;;;;14.20;12.80;;;16.30;99.90;;;;;;5043180;28;20052;-69
2022/08/24 02:40:14;;;;;;;15.75;14.18;;;16.20;99.90;;;;;;5041110;28;20488;-69
2022/08/24 02:42:40;;;;;;;18.20;16.17;;;16.30;99.90;;;;;;5042430;28;20118;-69
2022/08/24 02:45:06;;;;;;;18.42;16.60;;;16.30;99.90;;;;;;5042567;28;20099;-69
2022/08/24 02:47:33;;;;;;;20.77;18.75;;;16.30;99.90;;;;;;5042713;28;20064;-69
2022/08/24 02:50:01;;;;;;;19.90;17.88;;;16.30;99.90;;;;;;5043723;28;20053;-69
2022/08/24 02:52:26;;;;;;;23.02;20.00;;;16.40;99.90;;;;;;5043802;28;20044;-69
2022/08/24 02:54:52;;;;;;;24.67;21.20;;;16.30;99.90;;;;;;5041457;28;20033;-69
2022/08/24 02:57:18;;;;;;;22.40;20.00;;;16.30;99.90;;;;;;5042310;28;20032;-69
2022/08/24 02:59:43;;;;;;;24.67;22.02;;;16.40;99.90;;;;;;5042640;28;20480;-69
2022/08/24 03:02:09;;;;;;;27.50;24.10;;;16.30;99.90;;;;;;5042758;28;20380;-69
2022/08/24 03:04:34;;;;;;;23.58;21.17;;;16.30;99.90;;;;;;5045888;28;20049;-69
2022/08/24 03:07:00;;;;;;;24.70;22.20;;;16.30;99.90;;;;;;5043189;28;20051;-69
2022/08/24 03:09:26;;;;;;;134.40;16.33;;;16.10;99.90;;;;;;5042355;28;20292;-69
2022/08/24 03:11:51;;;;;;;14.30;13.00;;;16.10;99.90;;;;;;5042472;28;20042;-69
2022/08/24 03:14:18;;;;;;;16.08;14.63;;;16.10;99.90;;;;;;5044573;28;20036;-69
2022/08/24 03:16:44;;;;;;;17.52;15.82;;;15.90;99.90;;;;;;5044417;28;21232;-68
2022/08/24 03:19:10;;;;;;;14.23;13.02;;;15.80;99.90;;;;;;5044851;28;20044;-68
2022/08/24 03:21:36;;;;;;;14.32;13.13;;;15.80;99.90;;;;;;5044907;28;20049;-69
2022/08/24 03:24:02;;;;;;;15.13;13.73;;;15.70;99.90;;;;;;5044085;28;20040;-69
2022/08/24 03:26:28;;;;;;;16.77;15.18;;;15.70;99.90;;;;;;5043638;28;20048;-69
2022/08/24 03:28:54;;;;;;;18.83;17.13;;;15.80;99.90;;;;;;5039969;28;20032;-69
2022/08/24 03:31:19;;;;;;;23.50;21.10;;;15.80;99.90;;;;;;5036838;28;20140;-69
2022/08/24 03:33:45;;;;;;;19.40;17.30;;;15.80;99.90;;;;;;5040932;28;20365;-69
2022/08/24 03:36:11;;;;;;;18.80;17.00;;;16.00;99.90;;;;;;5046906;28;20033;-68
2022/08/24 03:38:36;;;;;;;25.27;22.77;;;16.00;99.90;;;;;;5043472;28;20048;-68
2022/08/24 03:41:02;;;;;;;24.50;22.00;;;16.00;99.90;;;;;;5042029;28;20041;-69
2022/08/24 03:43:47;;;;;;;22.67;20.38;;;15.90;99.90;;;;;;5041453;28;20064;-69
2022/08/24 03:46:20;;;;;;;23.23;20.58;;;16.10;99.90;;;;;;5043694;28;20072;-69
2022/08/24 03:48:46;;;;;;;23.55;21.10;;;16.00;99.90;;;;;;5044467;28;20436;-68
2022/08/24 03:51:14;;;;;;;21.60;19.40;;;15.80;99.90;;;;;;5040241;28;20040;-68
2022/08/24 03:53:41;;;;;;;26.88;23.83;;;15.80;99.90;;;;;;5043438;28;20494;-68
2022/08/24 03:56:07;;;;;;;22.20;20.00;;;15.80;99.90;;;;;;5041059;28;20087;-68
2022/08/24 03:58:35;;;;;;;25.13;22.45;;;15.80;99.90;;;;;;5040859;28;20045;-68
2022/08/24 04:01:01;;;;;;;25.98;23.20;;;15.80;99.90;;;;;;5053747;28;20483;-68
2022/08/24 04:03:27;;;;;;;24.58;22.13;;;15.70;99.90;;;;;;5043699;28;20091;-68
2022/08/24 04:05:53;;;;;;;27.88;24.90;;;15.80;99.90;;;;;;5042654;28;20052;-68
2022/08/24 04:08:19;;;;;;;25.92;21.67;;;15.70;99.90;;;;;;5059909;28;20498;-68
2022/08/24 04:10:46;;;;;;;23.75;21.25;;;15.80;99.90;;;;;;5059053;28;20447;-68
2022/08/24 04:13:12;;;;;;;23.67;21.13;;;15.80;99.90;;;;;;5044429;28;20057;-68
2022/08/24 04:15:42;;;;;;;22.20;19.88;;;15.80;99.90;;;;;;5032185;28;20068;-68
2022/08/24 04:18:08;;;;;;;20.70;18.60;;;15.80;99.90;;;;;;5046239;28;20033;-68
2022/08/24 04:20:42;;;;;;;20.08;18.08;;;15.70;99.90;;;;;;5043005;28;20048;-68
2022/08/24 04:23:09;;;;;;;23.92;21.40;;;15.80;99.90;;;;;;5043111;28;20041;-68
2022/08/24 04:25:39;;;;;;;24.02;21.50;;;15.80;99.90;;;;;;5032279;28;20078;-68
2022/08/24 04:28:05;;;;;;;23.33;20.88;;;15.70;99.90;;;;;;5046763;28;20033;-68
2022/08/24 04:30:31;;;;;;;21.25;19.15;;;15.60;99.90;;;;;;5046423;28;20051;-68
2022/08/24 04:32:57;;;;;;;21.92;19.65;;;15.70;99.90;;;;;;5046728;28;20487;-68
2022/08/24 04:35:22;;;;;;;21.02;18.92;;;15.70;99.90;;;;;;5048209;28;20044;-68
2022/08/24 04:37:48;;;;;;;27.10;21.05;;;15.80;99.90;;;;;;5042841;28;20037;-68
2022/08/24 04:40:14;;;;;;;32.53;21.90;;;15.80;99.90;;;;;;5047182;28;20119;-68
2022/08/24 04:42:40;;;;;;;33.13;24.88;;;15.80;99.90;;;;;;5048478;28;20123;-68
2022/08/24 04:45:06;;;;;;;28.95;24.77;;;15.70;99.90;;;;;;5056181;28;20156;-68
2022/08/24 04:47:31;;;;;;;169.13;29.35;;;15.80;99.90;;;;;;5052359;28;20086;-69
2022/08/24 04:49:57;;;;;;;53.47;22.15;;;15.80;99.90;;;;;;5053034;28;20438;-69
2022/08/24 04:52:23;;;;;;;71.47;24.42;;;15.70;99.90;;;;;;5053451;28;20345;-69
2022/08/24 04:54:48;;;;;;;35.20;24.83;;;15.60;99.90;;;;;;5049905;28;20045;-68
2022/08/24 04:57:14;;;;;;;44.63;29.35;;;15.60;99.90;;;;;;5049869;28;20045;-69
2022/08/24 04:59:40;;;;;;;35.55;28.33;;;15.50;99.90;;;;;;5054535;28;20112;-69
2022/08/24 05:02:06;;;;;;;40.00;29.75;;;15.60;99.90;;;;;;5050712;28;20479;-69
2022/08/24 05:04:31;;;;;;;33.75;27.55;;;15.50;99.90;;;;;;5050427;28;20033;-69
2022/08/24 05:06:57;;;;;;;35.50;29.55;;;15.60;99.90;;;;;;5047682;28;20040;-69
2022/08/24 05:09:22;;;;;;;34.42;27.30;;;15.70;99.90;;;;;;5063650;28;20159;-69
2022/08/24 05:11:48;;;;;;;34.75;27.10;;;15.80;99.90;;;;;;5048110;28;20067;-69
2022/08/24 05:14:14;;;;;;;104.45;33.78;;;15.80;99.90;;;;;;5051544;28;20049;-69
2022/08/24 05:16:39;;;;;;;43.50;29.67;;;15.80;99.90;;;;;;5051379;28;20043;-69
2022/08/24 05:19:06;;;;;;;33.17;27.42;;;15.70;99.90;;;;;;5048422;28;20048;-69
2022/08/24 05:21:32;;;;;;;36.50;28.17;;;15.70;99.90;;;;;;5048076;28;20048;-68
2022/08/24 05:23:57;;;;;;;34.00;28.05;;;15.70;99.90;;;;;;5050940;28;20041;-69
2022/08/24 05:26:26;;;;;;;36.13;30.00;;;15.70;99.90;;;;;;5050516;28;20171;-68
2022/08/24 05:28:57;;;;;;;37.85;29.90;;;15.80;99.90;;;;;;5050266;28;20037;-68
2022/08/24 05:31:26;;;;;;;28.90;24.83;;;15.80;99.90;;;;;;5050555;28;20036;-69
2022/08/24 05:33:51;;;;;;;28.25;24.33;;;15.80;99.90;;;;;;5050274;28;20072;-69
2022/08/24 05:36:24;;;;;;;81.25;34.03;;;15.90;99.90;;;;;;5061966;28;20073;-69
2022/08/24 05:38:51;;;;;;;44.22;30.50;;;16.00;99.90;;;;;;5050067;28;20045;-69
2022/08/24 05:41:17;;;;;;;71.28;34.03;;;16.00;99.90;;;;;;5048150;28;20037;-69
2022/08/24 05:43:43;;;;;;;138.20;33.72;;;16.10;99.90;;;;;;5032185;28;20155;-69
2022/08/24 05:46:09;;;;;;;62.53;37.45;;;16.10;99.90;;;;;;5046367;28;20033;-69
2022/08/24 05:48:36;;;;;;;59.42;40.97;;;16.00;99.90;;;;;;5049913;28;20040;-70
2022/08/24 05:51:02;;;;;;;83.70;50.83;;;16.10;99.90;;;;;;5056498;28;20116;-69
2022/08/24 05:53:28;;;;;;;70.32;48.50;;;16.20;99.90;;;;;;5047242;28;20509;-69
2022/08/24 05:55:54;;;;;;;59.55;42.72;;;16.40;99.90;;;;;;5047111;28;20045;-69
2022/08/24 05:58:19;;;;;;;42.92;35.30;;;16.40;99.90;;;;;;5048552;28;20380;-70
2022/08/24 06:00:45;;;;;;;50.80;39.60;;;16.60;99.90;;;;;;5047865;28;20047;-70
2022/08/24 06:03:15;;;;;;;45.83;37.65;;;16.60;99.90;;;;;;5049747;28;20033;-70
2022/08/24 06:05:42;;;;;;;43.63;33.88;;;16.80;99.90;;;;;;5048295;28;20411;-70
2022/08/24 06:08:09;;;;;;;37.33;29.17;;;16.80;99.90;;;;;;5061882;28;20132;-70
2022/08/24 06:10:43;;;;;;;32.30;28.40;;;17.00;99.90;;;;;;5049285;28;20051;-70
2022/08/24 06:13:10;;;;;;;32.92;28.70;;;17.00;99.90;;;;;;5043856;28;20044;-70
2022/08/24 06:15:36;;;;;;;39.33;31.40;;;17.20;99.90;;;;;;5046174;28;20712;-71
2022/08/24 06:18:03;;;;;;;44.17;34.42;;;17.40;99.90;;;;;;5041895;28;21557;-71
2022/08/24 06:20:29;;;;;;;38.20;32.55;;;17.50;99.90;;;;;;5045061;28;20042;-71
2022/08/24 06:22:55;;;;;;;43.00;32.30;;;17.60;99.90;;;;;;5046772;28;20067;-71
2022/08/24 06:28:05;;;;;;;38.40;31.67;;;17.70;99.90;;;;;;5047236;28;20306;-71
2022/08/24 06:30:30;;;;;;;42.53;34.33;;;17.90;99.90;;;;;;5029149;28;20049;-71
2022/08/24 06:33:01;;;;;;;43.10;35.45;;;18.00;99.90;;;;;;5048479;28;20048;-71
2022/08/24 06:35:26;;;;;;;47.25;36.38;;;18.10;99.90;;;;;;5045788;28;20407;-71
2022/08/24 06:37:52;;;;;;;57.03;43.63;;;18.40;99.90;;;;;;5048062;28;20036;-71
2022/08/24 06:40:20;;;;;;;60.70;42.60;;;18.50;99.90;;;;;;5046737;28;20120;-71
2022/08/24 06:42:47;;;;;;;58.78;45.40;;;18.70;99.90;;;;;;5047324;28;20072;-71
2022/08/24 06:45:12;;;;;;;54.10;40.40;;;18.70;99.90;;;;;;5048533;28;20091;-70
2022/08/24 06:47:39;;;;;;;61.00;43.15;;;19.00;99.90;;;;;;5048567;28;20431;-70
2022/08/24 06:50:05;;;;;;;55.00;42.28;;;19.00;99.90;;;;;;5048925;28;20061;-70
2022/08/24 06:52:31;;;;;;;64.78;46.92;;;19.20;99.90;;;;;;5047843;28;20044;-70
2022/08/24 06:54:57;;;;;;;59.75;44.65;;;19.30;99.90;;;;;;5046993;28;20037;-70
2022/08/24 06:57:23;;;;;;;57.97;43.97;;;19.50;99.90;;;;;;5047591;28;20071;-70
2022/08/24 06:59:48;;;;;;;62.08;46.97;;;19.70;99.90;;;;;;5047962;28;20045;-70
2022/08/24 07:02:17;;;;;;;60.35;44.85;;;19.80;99.90;;;;;;5045124;28;20132;-70
2022/08/24 07:04:43;;;;;;;64.00;45.33;;;19.80;99.90;;;;;;5050186;28;20411;-69
2022/08/24 07:07:09;;;;;;;56.15;44.90;;;20.00;99.90;;;;;;5049007;28;20025;-69
2022/08/24 07:09:34;;;;;;;54.67;44.40;;;20.20;99.90;;;;;;5047643;28;20473;-69
2022/08/24 07:12:00;;;;;;;62.50;46.75;;;20.30;99.90;;;;;;5044996;28;20033;-69
2022/08/24 07:14:26;;;;;;;59.35;45.97;;;20.50;99.90;;;;;;5050725;28;20135;-68
2022/08/24 07:16:53;;;;;;;56.60;45.90;;;20.60;99.90;;;;;;5045032;28;20056;-69
2022/08/24 07:19:18;;;;;;;56.45;46.20;;;20.70;99.90;;;;;;5031347;28;20094;-69
2022/08/24 07:21:44;;;;;;;59.42;47.80;;;20.80;99.90;;;;;;5030947;28;20124;-69
2022/08/24 07:24:10;;;;;;;57.55;46.50;;;20.90;99.90;;;;;;5053464;28;20068;-69
2022/08/24 07:26:37;;;;;;;56.55;45.72;;;21.00;99.90;;;;;;5045007;28;20632;-70
2022/08/24 07:29:08;;;;;;;56.60;44.10;;;21.10;99.90;;;;;;5048166;28;20037;-69
2022/08/24 07:31:36;;;;;;;58.53;44.85;;;21.30;99.90;;;;;;5051018;28;20048;-68
2022/08/24 07:34:03;;;;;;;54.97;44.35;;;21.50;99.90;;;;;;5050784;28;20057;-69
2022/08/24 07:36:29;;;;;;;52.08;43.50;;;21.50;99.90;;;;;;5052354;28;20541;-68
2022/08/24 07:38:56;;;;;;;55.58;44.90;;;21.60;99.90;;;;;;5050469;28;20041;-68
2022/08/24 07:41:24;;;;;;;54.17;44.30;;;21.90;99.90;;;;;;5047538;28;20042;-69
2022/08/24 07:43:51;;;;;;;52.03;43.45;;;22.00;99.90;;;;;;5054276;28;20041;-69
2022/08/24 07:46:16;;;;;;;54.60;42.40;;;22.10;99.90;;;;;;5037452;28;20450;-69
2022/08/24 07:48:42;;;;;;;47.47;39.97;;;22.20;99.90;;;;;;5054106;28;20095;-69
2022/08/24 07:51:19;;;;;;;46.85;40.28;;;22.30;99.90;;;;;;5053105;28;20041;-68
2022/08/24 07:53:45;;;;;;;43.25;36.50;;;22.50;99.90;;;;;;5053539;28;20040;-68
2022/08/24 07:56:11;;;;;;;43.80;37.65;;;22.50;99.90;;;;;;5054611;28;20551;-69
2022/08/24 07:58:37;;;;;;;39.20;32.78;;;22.60;99.90;;;;;;5038174;28;20135;-69
2022/08/24 08:01:04;;;;;;;40.05;32.03;;;22.60;99.90;;;;;;5052486;28;20044;-69
2022/08/24 08:03:32;;;;;;;36.38;32.42;;;22.70;99.90;;;;;;5053317;28;20045;-69
2022/08/24 08:06:01;;;;;;;36.13;31.65;;;22.80;99.90;;;;;;5053462;28;20037;-69
2022/08/24 08:08:27;;;;;;;34.15;30.08;;;22.90;99.90;;;;;;5053335;28;20052;-69
2022/08/24 08:10:53;;;;;;;36.85;30.75;;;23.00;99.90;;;;;;5053771;28;20488;-69
2022/08/24 08:13:19;;;;;;;36.63;30.98;;;23.10;99.90;;;;;;5051024;28;20045;-69
2022/08/24 08:15:45;;;;;;;33.55;28.80;;;23.20;99.90;;;;;;5050978;28;20045;-70
2022/08/24 08:18:11;;;;;;;30.20;26.98;;;23.40;99.90;;;;;;5052972;28;20068;-70
2022/08/24 08:20:39;;;;;;;30.20;25.15;;;23.50;99.90;;;;;;5048901;28;20058;-69
2022/08/24 08:25:53;;;;;;;29.50;25.40;;;23.60;99.90;;;;;;5068809;28;20127;-69
2022/08/24 08:28:19;;;;;;;32.42;25.38;;;23.70;99.90;;;;;;5063979;28;20043;-70
2022/08/24 08:30:45;;;;;;;33.33;24.98;;;23.80;99.90;;;;;;5052021;28;20099;-70
2022/08/24 08:33:11;;;;;;;30.33;26.13;;;23.90;99.90;;;;;;5051487;28;20092;-70
2022/08/24 08:35:39;;;;;;;27.73;24.70;;;24.00;99.90;;;;;;5051852;28;20051;-70
2022/08/24 08:38:06;;;;;;;27.77;24.75;;;24.10;99.90;;;;;;5051816;28;20404;-70
2022/08/24 08:40:44;;;;;;;27.20;24.40;;;24.20;99.90;;;;;;5051832;28;20083;-70
2022/08/24 08:43:36;;;;;;;26.27;23.33;;;24.40;99.90;;;;;;5035333;28;20412;-70
2022/08/24 08:46:37;;;;;;;29.80;25.25;;;24.40;99.90;;;;;;5035177;28;20045;-70
2022/08/24 08:49:33;;;;;;;29.30;22.65;;;24.50;99.90;;;;;;5034591;28;20052;-70
2022/08/24 08:52:14;;;;;;;25.02;22.33;;;24.50;99.90;;;;;;5049342;28;20044;-71
2022/08/24 08:54:58;;;;;;;24.98;21.10;;;24.50;99.90;;;;;;5051948;28;20498;-71
2022/08/24 08:57:43;;;;;;;25.40;21.02;;;24.50;99.90;;;;;;5051463;28;20468;-71
2022/08/24 09:00:16;;;;;;;21.80;19.50;;;24.60;99.90;;;;;;5051404;28;20055;-71
2022/08/24 09:03:18;;;;;;;23.80;18.13;;;24.60;99.90;;;;;;5049527;28;20830;-71
2022/08/24 09:05:53;;;;;;;23.13;17.35;;;24.70;99.90;;;;;;5031428;28;20128;-71
2022/08/24 09:08:37;;;;;;;20.25;17.30;;;24.70;99.90;;;;;;5047753;28;20045;-71
2022/08/24 09:11:10;;;;;;;15.95;13.52;;;24.80;99.90;;;;;;5063198;28;20716;-71
2022/08/24 09:13:53;;;;;;;14.77;12.23;;;24.90;99.90;;;;;;5046412;28;20045;-71
2022/08/24 09:16:41;;;;;;;16.65;13.27;;;25.00;99.90;;;;;;5051785;28;20429;-71
2022/08/24 09:19:42;;;;;;;16.35;14.05;;;25.00;99.90;;;;;;5050651;28;20512;-71
2022/08/24 09:22:12;;;;;;;22.08;16.33;;;25.10;99.90;;;;;;5045932;28;20049;-71
2022/08/24 09:24:53;;;;;;;17.52;15.52;;;25.10;99.90;;;;;;5050722;28;20041;-72
2022/08/24 09:27:31;;;;;;;17.92;14.68;;;25.20;99.90;;;;;;5050716;28;20090;-72
2022/08/24 09:30:09;;;;;;;16.15;12.75;;;25.30;99.90;;;;;;5050891;28;20392;-72
2022/08/24 09:32:55;;;;;;;14.10;12.38;;;25.40;99.90;;;;;;5055763;28;20082;-72
2022/08/24 09:35:36;;;;;;;16.33;12.52;;;25.50;99.90;;;;;;5057380;28;20034;-71
2022/08/24 09:38:25;;;;;;;17.25;13.40;;;25.70;99.90;;;;;;5045840;28;20041;-71
2022/08/24 09:41:13;;;;;;;14.68;11.55;;;25.80;99.90;;;;;;5050375;28;20120;-72
2022/08/24 09:44:04;;;;;;;18.05;11.88;;;25.80;99.90;;;;;;5042003;28;20053;-72
2022/08/24 09:46:43;;;;;;;13.23;11.85;;;26.00;99.90;;;;;;5030852;28;20041;-72
2022/08/24 09:49:15;;;;;;;17.50;11.60;;;26.00;99.90;;;;;;5037336;28;20242;-72
2022/08/24 09:52:10;;;;;;;12.63;10.75;;;26.10;99.90;;;;;;5045810;28;20047;-72
2022/08/24 09:55:00;;;;;;;13.38;10.73;;;26.10;99.90;;;;;;5032404;28;20407;-72
2022/08/24 09:57:59;;;;;;;13.02;10.68;;;26.20;99.90;;;;;;5030138;28;20091;-72
2022/08/24 10:00:37;;;;;;;11.48;8.90;;;26.30;99.90;;;;;;5030014;28;20569;-73
2022/08/24 10:03:57;;;;;;;9.18;8.25;;;26.40;99.90;;;;;;5029619;28;20041;-72
2022/08/24 10:06:46;;;;;;;10.50;8.02;;;26.50;99.90;;;;;;4970898;28;20081;-72
2022/08/24 10:09:33;;;;;;;9.07;7.00;;;26.50;99.90;;;;;;5065779;28;20049;-72
2022/08/24 10:11:59;;;;;;;9.25;6.47;;;26.50;99.90;;;;;;5049647;28;20044;-74
2022/08/24 10:14:40;;;;;;;9.20;6.88;;;26.60;99.90;;;;;;5042884;28;20378;-73
2022/08/24 10:17:24;;;;;;;8.50;6.75;;;26.60;99.90;;;;;;5049280;28;20041;-71
2022/08/24 10:20:23;;;;;;;7.22;5.10;;;26.60;99.90;;;;;;5049683;28;20041;-72
2022/08/24 10:23:17;;;;;;;6.93;4.97;;;26.70;99.90;;;;;;5046779;28;20179;-72
2022/08/24 10:25:50;;;;;;;4.70;4.07;;;26.80;99.90;;;;;;5049902;28;20033;-73
2022/08/24 10:28:58;;;;;;;5.03;4.28;;;26.90;99.90;;;;;;5044079;28;20029;-73
2022/08/24 10:31:39;;;;;;;4.38;2.90;;;26.90;99.90;;;;;;5046055;28;20064;-73
2022/08/24 10:34:22;;;;;;;3.33;3.10;;;27.00;99.90;;;;;;5049433;28;20102;-73
2022/08/24 10:37:08;;;;;;;5.93;4.10;;;27.10;99.90;;;;;;5046863;28;20044;-73
2022/08/24 10:39:46;;;;;;;7.03;4.45;;;27.20;99.90;;;;;;5049628;28;20045;-73
2022/08/24 10:45:48;;;;;;;4.78;3.67;;;27.30;99.90;;;;;;5049530;28;20056;-73
2022/08/24 10:48:29;;;;;;;4.07;3.63;;;27.30;99.90;;;;;;5049590;28;20045;-73
2022/08/24 10:51:09;;;;;;;3.67;2.97;;;27.40;99.90;;;;;;5049236;28;20128;-72
2022/08/24 10:53:35;;;;;;;3.30;3.00;;;27.40;99.90;;;;;;5049288;28;20041;-73
2022/08/24 10:56:07;;;;;;;6.47;3.50;;;27.50;99.90;;;;;;5046218;28;20087;-73
2022/08/24 10:58:58;;;;;;;5.32;3.20;;;27.60;99.90;;;;;;5049598;28;20307;-73
2022/08/24 11:01:28;;;;;;;5.80;3.97;;;27.60;99.90;;;;;;5045155;28;20087;-73
2022/08/24 11:04:01;;;;;;;5.97;3.67;;;27.60;99.90;;;;;;5044255;28;20059;-72
2022/08/24 11:06:53;;;;;;;4.43;3.33;;;27.60;99.90;;;;;;5042915;28;20075;-73
2022/08/24 11:09:19;;;;;;;3.40;2.83;;;27.70;99.90;;;;;;5058119;28;20041;-72
2022/08/24 11:11:47;;;;;;;4.57;2.97;;;27.70;99.90;;;;;;5049798;28;20045;-73
2022/08/24 11:14:27;;;;;;;3.38;2.60;;;27.80;99.90;;;;;;5052008;28;20044;-73
2022/08/24 11:17:13;;;;;;;4.15;2.40;;;27.90;99.90;;;;;;5074415;28;20049;-72
2022/08/24 11:19:39;;;;;;;3.42;2.60;;;27.90;99.90;;;;;;5075673;28;20055;-73
2022/08/24 11:22:27;;;;;;;4.03;2.60;;;28.00;99.90;;;;;;5075430;28;20048;-73
2022/08/24 11:24:56;;;;;;;6.75;2.70;;;28.00;99.90;;;;;;5055191;28;20067;-72
2022/08/24 11:27:33;;;;;;;3.80;2.60;;;28.00;99.90;;;;;;5049326;28;20036;-73
2022/08/24 11:30:11;;;;;;;4.97;2.42;;;28.00;99.90;;;;;;5072112;28;20029;-72
2022/08/24 11:32:50;;;;;;;3.55;2.10;;;28.10;99.90;;;;;;5055647;28;20036;-72
2022/08/24 11:35:30;;;;;;;2.45;2.25;;;28.20;99.90;;;;;;5054483;28;20041;-72
2022/08/24 11:38:17;;;;;;;4.13;2.25;;;28.30;99.90;;;;;;5055206;28;20076;-72
2022/08/24 11:41:04;;;;;;;2.65;2.20;;;28.30;99.90;;;;;;5053532;28;20041;-73
2022/08/24 11:43:51;;;;;;;5.07;2.80;;;28.40;99.90;;;;;;5070160;28;20048;-73
2022/08/24 11:46:20;;;;;;;3.10;2.00;;;28.40;99.90;;;;;;5054836;28;20072;-73
2022/08/24 11:48:48;;;;;;;4.68;2.38;;;28.40;99.90;;;;;;5055207;28;20033;-72
2022/08/24 11:51:45;;;;;;;3.72;2.70;;;28.20;99.90;;;;;;5053314;28;20080;-72
2022/08/24 11:54:30;;;;;;;5.20;2.95;;;28.10;99.90;;;;;;5047647;28;20071;-73
2022/08/24 11:57:11;;;;;;;4.05;2.50;;;27.90;99.90;;;;;;5047959;28;20080;-73
2022/08/24 12:00:09;;;;;;;3.13;2.30;;;27.80;99.90;;;;;;5045863;28;20462;-73
2022/08/24 12:02:43;;;;;;;2.70;2.50;;;27.90;99.90;;;;;;5053352;28;20123;-73
2022/08/24 12:05:30;;;;;;;3.08;2.40;;;27.80;99.90;;;;;;5046322;28;20044;-72
2022/08/24 12:08:26;;;;;;;2.63;2.40;;;27.70;99.90;;;;;;5052977;28;20041;-73
2022/08/24 12:11:18;;;;;;;3.72;1.98;;;27.70;99.90;;;;;;5054739;28;20036;-73
2022/08/24 12:13:58;;;;;;;3.72;2.00;;;27.90;99.90;;;;;;5053524;28;20041;-73
2022/08/24 12:16:31;;;;;;;3.45;2.10;;;28.00;99.90;;;;;;5049795;28;20411;-73
2022/08/24 12:19:09;;;;;;;4.20;2.20;;;28.20;99.90;;;;;;5054925;28;20458;-72
2022/08/24 12:21:38;;;;;;;2.75;2.25;;;28.40;99.90;;;;;;5054516;28;20470;-72
2022/08/24 12:24:07;;;;;;;3.53;2.40;;;28.30;99.90;;;;;;5073514;28;20036;-73
2022/08/24 12:26:49;;;;;;;2.33;2.15;;;28.30;99.90;;;;;;5062417;28;20044;-72
2022/08/24 12:29:24;;;;;;;2.08;1.95;;;28.30;99.90;;;;;;5051778;28;20037;-72
2022/08/24 12:31:56;;;;;;;2.85;2.33;;;28.30;99.90;;;;;;5047173;28;20045;-72
2022/08/24 12:34:30;;;;;;;3.47;2.00;;;28.40;99.90;;;;;;5066304;28;20048;-71
2022/08/24 12:36:56;;;;;;;6.63;2.38;;;28.50;99.90;;;;;;5057751;28;20056;-73
2022/08/24 12:39:32;;;;;;;3.45;2.08;;;28.50;99.90;;;;;;5050110;28;20579;-73
2022/08/24 12:42:27;;;;;;;3.65;2.20;;;28.50;99.90;;;;;;5049318;28;20049;-74
2022/08/24 12:45:01;;;;;;;3.15;2.10;;;28.60;99.90;;;;;;5041773;28;20041;-73
2022/08/24 12:47:38;;;;;;;2.55;2.08;;;28.60;99.90;;;;;;5048594;28;20056;-72
2022/08/24 12:50:18;;;;;;;3.03;2.20;;;28.50;99.90;;;;;;5051767;28;20063;-72
2022/08/24 12:53:05;;;;;;;3.08;2.10;;;28.60;99.90;;;;;;5051104;28;20075;-72
2022/08/24 12:56:04;;;;;;;3.53;2.00;;;28.70;99.90;;;;;;5051544;28;20044;-70
2022/08/24 12:58:59;;;;;;;2.30;2.10;;;28.80;99.90;;;;;;5049424;28;20091;-71
2022/08/24 13:01:28;;;;;;;2.40;2.20;;;28.80;99.90;;;;;;5051055;28;20132;-71
2022/08/24 13:04:11;;;;;;;2.95;1.92;;;28.70;99.90;;;;;;5049409;28;20045;-72